PWSweather.com
Personal Weather Stations
Station Observations
ANTHEMNP
Anthem North Parkside, Anthem, AZ 85086

Anthem North ParksideAnthem, AZ 85086

Lat: 33.876464, Lon: -112.13861199999997

Elevation: 1930

Station Type: Davis Vantage Vue with Pro 2 console

http://www.azjerry.com/ANPW/wxindex.php

High Low Average
Temperature 100.9°F38.3°C 74.3°F23.5°C 88.3°F31.3°C
Dew Point 70.0°F21.1°C 57.0°F13.9°C 63.5°F17.5°C
Winds 7.4 mph 11.9 kmh 0.4 mph 0.6 kmh 3.0 mph SSE4.8 kmh SSE
Wind Gusts 15.0 mph24.1 kmh 2.0 mph3.2 kmh 8.0 mph12.9 kmh
Humidity 85% 24% 47%
Pressure 29.98 in1015.2 mb 29.81 in1009.5 mb -
Precipitation 0.00 in0.0 mm - -
Hour Temp Dew Point Humidity Winds Wind Gusts Pressure Precip Precip Rate Daily Precip Total
12:00 AM 74.3°F23.5°C 70.0°F21.1°C 85% 0.8 mph N1.3 kmh N 3.0 mph4.8 kmh 29.98 in1015.2 mb 0.00 in0.0 mm 0.00 in0.0 mm 0.00 in0.0 mm
12:10 AM 74.4°F23.6°C 69.0°F20.6°C 84% 0.7 mph NE1.1 kmh NE 3.0 mph4.8 kmh 29.98 in1015.2 mb 0.00 in0.0 mm 0.00 in0.0 mm 0.00 in0.0 mm
12:20 AM 74.6°F23.7°C 69.0°F20.6°C 83% 1.2 mph N1.9 kmh N 4.0 mph6.4 kmh 29.98 in1015.2 mb 0.00 in0.0 mm 0.00 in0.0 mm 0.00 in0.0 mm
12:30 AM 74.9°F23.8°C 69.0°F20.6°C 82% 1.6 mph WNW2.6 kmh WNW 5.0 mph8.0 kmh 29.97 in1014.9 mb 0.00 in0.0 mm 0.00 in0.0 mm 0.00 in0.0 mm
12:40 AM 75.1°F23.9°C 69.0°F20.6°C 82% 2.9 mph NNE4.7 kmh NNE 6.0 mph9.7 kmh 29.96 in1014.6 mb 0.00 in0.0 mm 0.00 in0.0 mm 0.00 in0.0 mm
12:50 AM 75.2°F24.0°C 69.0°F20.6°C 81% 3.8 mph N6.1 kmh N 8.0 mph12.9 kmh 29.96 in1014.6 mb 0.00 in0.0 mm 0.00 in0.0 mm 0.00 in0.0 mm
01:00 AM 75.4°F24.1°C 68.0°F20.0°C 78% 3.4 mph NE5.5 kmh NE 6.0 mph9.7 kmh 29.96 in1014.6 mb 0.00 in0.0 mm 0.00 in0.0 mm 0.00 in0.0 mm
01:10 AM 75.4°F24.1°C 69.0°F20.6°C 79% 3.4 mph N5.5 kmh N 7.0 mph11.3 kmh 29.95 in1014.2 mb 0.00 in0.0 mm 0.00 in0.0 mm 0.00 in0.0 mm
01:20 AM 75.5°F24.2°C 67.0°F19.4°C 76% 3.6 mph NE5.8 kmh NE 7.0 mph11.3 kmh 29.95 in1014.2 mb 0.00 in0.0 mm 0.00 in0.0 mm 0.00 in0.0 mm
01:30 AM 76.0°F24.4°C 66.0°F18.9°C 72% 4.0 mph N6.4 kmh N 7.0 mph11.3 kmh 29.95 in1014.2 mb 0.00 in0.0 mm 0.00 in0.0 mm 0.00 in0.0 mm
01:40 AM 76.8°F24.9°C 66.0°F18.9°C 70% 3.8 mph N6.1 kmh N 7.0 mph11.3 kmh 29.95 in1014.2 mb 0.00 in0.0 mm 0.00 in0.0 mm 0.00 in0.0 mm
01:50 AM 77.0°F25.0°C 67.0°F19.4°C 70% 2.9 mph N4.7 kmh N 6.0 mph9.7 kmh 29.95 in1014.2 mb 0.00 in0.0 mm 0.00 in0.0 mm 0.00 in0.0 mm
02:00 AM 77.4°F25.2°C 67.0°F19.4°C 70% 2.9 mph NNE4.7 kmh NNE 6.0 mph9.7 kmh 29.94 in1013.9 mb 0.00 in0.0 mm 0.00 in0.0 mm 0.00 in0.0 mm
02:10 AM 77.3°F25.2°C 66.0°F18.9°C 69% 3.1 mph N5.0 kmh N 7.0 mph11.3 kmh 29.93 in1013.5 mb 0.00 in0.0 mm 0.00 in0.0 mm 0.00 in0.0 mm
02:20 AM 77.7°F25.4°C 66.0°F18.9°C 68% 3.3 mph ENE5.3 kmh ENE 6.0 mph9.7 kmh 29.93 in1013.5 mb 0.00 in0.0 mm 0.00 in0.0 mm 0.00 in0.0 mm
02:30 AM 78.2°F25.7°C 66.0°F18.9°C 67% 3.7 mph NE6.0 kmh NE 9.0 mph14.5 kmh 29.93 in1013.5 mb 0.00 in0.0 mm 0.00 in0.0 mm 0.00 in0.0 mm
02:40 AM 79.2°F26.2°C 66.0°F18.9°C 64% 5.8 mph N9.3 kmh N 10.0 mph16.1 kmh 29.93 in1013.5 mb 0.00 in0.0 mm 0.00 in0.0 mm 0.00 in0.0 mm
02:50 AM 79.1°F26.2°C 66.0°F18.9°C 65% 3.9 mph NNE6.3 kmh NNE 9.0 mph14.5 kmh 29.93 in1013.5 mb 0.00 in0.0 mm 0.00 in0.0 mm 0.00 in0.0 mm
03:00 AM 78.7°F25.9°C 66.0°F18.9°C 66% 1.8 mph N2.9 kmh N 4.0 mph6.4 kmh 29.92 in1013.2 mb 0.00 in0.0 mm 0.00 in0.0 mm 0.00 in0.0 mm
03:10 AM 78.5°F25.8°C 66.0°F18.9°C 66% 1.6 mph N2.6 kmh N 4.0 mph6.4 kmh 29.92 in1013.2 mb 0.00 in0.0 mm 0.00 in0.0 mm 0.00 in0.0 mm
03:20 AM 78.8°F26.0°C 66.0°F18.9°C 66% 2.6 mph N4.2 kmh N 4.0 mph6.4 kmh 29.92 in1013.2 mb 0.00 in0.0 mm 0.00 in0.0 mm 0.00 in0.0 mm
03:30 AM 78.9°F26.1°C 67.0°F19.4°C 66% 2.7 mph N4.3 kmh N 4.0 mph6.4 kmh 29.92 in1013.2 mb 0.00 in0.0 mm 0.00 in0.0 mm 0.00 in0.0 mm
03:40 AM 77.5°F25.3°C 66.0°F18.9°C 68% 3.4 mph NNW5.5 kmh NNW 7.0 mph11.3 kmh 29.92 in1013.2 mb 0.00 in0.0 mm 0.00 in0.0 mm 0.00 in0.0 mm
03:50 AM 77.3°F25.2°C 66.0°F18.9°C 68% 4.7 mph NNW7.6 kmh NNW 10.0 mph16.1 kmh 29.92 in1013.2 mb 0.00 in0.0 mm 0.00 in0.0 mm 0.00 in0.0 mm
04:00 AM 77.8°F25.4°C 65.0°F18.3°C 65% 4.7 mph NNE7.6 kmh NNE 9.0 mph14.5 kmh 29.92 in1013.2 mb 0.00 in0.0 mm 0.00 in0.0 mm 0.00 in0.0 mm
04:10 AM 78.0°F25.6°C 65.0°F18.3°C 64% 3.8 mph N6.1 kmh N 9.0 mph14.5 kmh 29.93 in1013.5 mb 0.00 in0.0 mm 0.00 in0.0 mm 0.00 in0.0 mm
04:20 AM 78.7°F25.9°C 65.0°F18.3°C 62% 5.1 mph N8.2 kmh N 10.0 mph16.1 kmh 29.93 in1013.5 mb 0.00 in0.0 mm 0.00 in0.0 mm 0.00 in0.0 mm
04:30 AM 78.6°F25.9°C 64.0°F17.8°C 62% 5.4 mph N8.7 kmh N 10.0 mph16.1 kmh 29.92 in1013.2 mb 0.00 in0.0 mm 0.00 in0.0 mm 0.00 in0.0 mm
04:40 AM 78.4°F25.8°C 65.0°F18.3°C 64% 4.6 mph N7.4 kmh N 9.0 mph14.5 kmh 29.93 in1013.5 mb 0.00 in0.0 mm 0.00 in0.0 mm 0.00 in0.0 mm
04:50 AM 78.4°F25.8°C 65.0°F18.3°C 63% 4.0 mph NNE6.4 kmh NNE 8.0 mph12.9 kmh 29.93 in1013.5 mb 0.00 in0.0 mm 0.00 in0.0 mm 0.00 in0.0 mm
05:00 AM 78.6°F25.9°C 65.0°F18.3°C 63% 1.8 mph NE2.9 kmh NE 6.0 mph9.7 kmh 29.93 in1013.5 mb 0.00 in0.0 mm 0.00 in0.0 mm 0.00 in0.0 mm
05:10 AM 78.6°F25.9°C 65.0°F18.3°C 63% 2.9 mph NW4.7 kmh NW 8.0 mph12.9 kmh 29.93 in1013.5 mb 0.00 in0.0 mm 0.00 in0.0 mm 0.00 in0.0 mm
05:20 AM 78.4°F25.8°C 65.0°F18.3°C 63% 3.9 mph N6.3 kmh N 7.0 mph11.3 kmh 29.93 in1013.5 mb 0.00 in0.0 mm 0.00 in0.0 mm 0.00 in0.0 mm
05:30 AM 78.4°F25.8°C 64.0°F17.8°C 62% 4.2 mph N6.8 kmh N 7.0 mph11.3 kmh 29.93 in1013.5 mb 0.00 in0.0 mm 0.00 in0.0 mm 0.00 in0.0 mm
05:40 AM 78.5°F25.8°C 64.0°F17.8°C 62% 3.5 mph NE5.6 kmh NE 6.0 mph9.7 kmh 29.93 in1013.5 mb 0.00 in0.0 mm 0.00 in0.0 mm 0.00 in0.0 mm
05:50 AM 78.4°F25.8°C 64.0°F17.8°C 62% 3.9 mph N6.3 kmh N 8.0 mph12.9 kmh 29.94 in1013.9 mb 0.00 in0.0 mm 0.00 in0.0 mm 0.00 in0.0 mm
06:00 AM 78.4°F25.8°C 64.0°F17.8°C 62% 3.3 mph N5.3 kmh N 7.0 mph11.3 kmh 29.94 in1013.9 mb 0.00 in0.0 mm 0.00 in0.0 mm 0.00 in0.0 mm
06:10 AM 78.4°F25.8°C 64.0°F17.8°C 61% 4.1 mph N6.6 kmh N 9.0 mph14.5 kmh 29.95 in1014.2 mb 0.00 in0.0 mm 0.00 in0.0 mm 0.00 in0.0 mm
06:20 AM 78.6°F25.9°C 63.0°F17.2°C 60% 4.7 mph NE7.6 kmh NE 9.0 mph14.5 kmh 29.95 in1014.2 mb 0.00 in0.0 mm 0.00 in0.0 mm 0.00 in0.0 mm
06:30 AM 79.0°F26.1°C 63.0°F17.2°C 59% 5.0 mph N8.0 kmh N 11.0 mph17.7 kmh 29.96 in1014.6 mb 0.00 in0.0 mm 0.00 in0.0 mm 0.00 in0.0 mm
06:40 AM 79.0°F26.1°C 63.0°F17.2°C 59% 4.8 mph N7.7 kmh N 8.0 mph12.9 kmh 29.95 in1014.2 mb 0.00 in0.0 mm 0.00 in0.0 mm 0.00 in0.0 mm
06:50 AM 79.1°F26.2°C 63.0°F17.2°C 59% 4.4 mph N7.1 kmh N 7.0 mph11.3 kmh 29.95 in1014.2 mb 0.00 in0.0 mm 0.00 in0.0 mm 0.00 in0.0 mm
07:00 AM 79.1°F26.2°C 63.0°F17.2°C 59% 4.3 mph NNE6.9 kmh NNE 8.0 mph12.9 kmh 29.96 in1014.6 mb 0.00 in0.0 mm 0.00 in0.0 mm 0.00 in0.0 mm
07:10 AM 79.9°F26.6°C 63.0°F17.2°C 57% 4.9 mph NNE7.9 kmh NNE 10.0 mph16.1 kmh 29.96 in1014.6 mb 0.00 in0.0 mm 0.00 in0.0 mm 0.00 in0.0 mm
07:20 AM 80.8°F27.1°C 64.0°F17.8°C 56% 5.4 mph NNW8.7 kmh NNW 9.0 mph14.5 kmh 29.96 in1014.6 mb 0.00 in0.0 mm 0.00 in0.0 mm 0.00 in0.0 mm
07:30 AM 81.5°F27.5°C 63.0°F17.2°C 54% 5.2 mph N8.4 kmh N 11.0 mph17.7 kmh 29.96 in1014.6 mb 0.00 in0.0 mm 0.00 in0.0 mm 0.00 in0.0 mm
07:40 AM 82.5°F28.1°C 63.0°F17.2°C 52% 5.1 mph NE8.2 kmh NE 10.0 mph16.1 kmh 29.97 in1014.9 mb 0.00 in0.0 mm 0.00 in0.0 mm 0.00 in0.0 mm
07:50 AM 83.5°F28.6°C 63.0°F17.2°C 50% 5.7 mph NNE9.2 kmh NNE 10.0 mph16.1 kmh 29.97 in1014.9 mb 0.00 in0.0 mm 0.00 in0.0 mm 0.00 in0.0 mm
08:00 AM 84.3°F29.1°C 63.0°F17.2°C 49% 6.0 mph N9.7 kmh N 11.0 mph17.7 kmh 29.97 in1014.9 mb 0.00 in0.0 mm 0.00 in0.0 mm 0.00 in0.0 mm
08:10 AM 85.4°F29.7°C 63.0°F17.2°C 47% 3.4 mph N5.5 kmh N 6.0 mph9.7 kmh 29.97 in1014.9 mb 0.00 in0.0 mm 0.00 in0.0 mm 0.00 in0.0 mm
08:20 AM 86.3°F30.2°C 63.0°F17.2°C 45% 3.7 mph N6.0 kmh N 8.0 mph12.9 kmh 29.97 in1014.9 mb 0.00 in0.0 mm 0.00 in0.0 mm 0.00 in0.0 mm
08:30 AM 87.2°F30.7°C 61.0°F16.1°C 42% 2.8 mph N4.5 kmh N 6.0 mph9.7 kmh 29.97 in1014.9 mb 0.00 in0.0 mm 0.00 in0.0 mm 0.00 in0.0 mm
08:40 AM 87.9°F31.1°C 62.0°F16.7°C 42% 1.8 mph NNE2.9 kmh NNE 5.0 mph8.0 kmh 29.98 in1015.2 mb 0.00 in0.0 mm 0.00 in0.0 mm 0.00 in0.0 mm
08:50 AM 89.0°F31.7°C 61.0°F16.1°C 39% 0.7 mph NW1.1 kmh NW 3.0 mph4.8 kmh 29.98 in1015.2 mb 0.00 in0.0 mm 0.00 in0.0 mm 0.00 in0.0 mm
09:00 AM 89.7°F32.1°C 60.0°F15.6°C 37% 0.4 mph NNE0.6 kmh NNE 2.0 mph3.2 kmh 29.98 in1015.2 mb 0.00 in0.0 mm 0.00 in0.0 mm 0.00 in0.0 mm
09:10 AM 90.6°F32.6°C 60.0°F15.6°C 36% 0.8 mph S1.3 kmh S 2.0 mph3.2 kmh 29.98 in1015.2 mb 0.00 in0.0 mm 0.00 in0.0 mm 0.00 in0.0 mm
09:20 AM 91.9°F33.3°C 60.0°F15.6°C 34% 0.7 mph SE1.1 kmh SE 2.0 mph3.2 kmh 29.98 in1015.2 mb 0.00 in0.0 mm 0.00 in0.0 mm 0.00 in0.0 mm
09:30 AM 92.9°F33.8°C 61.0°F16.1°C 34% 0.9 mph SW1.4 kmh SW 3.0 mph4.8 kmh 29.98 in1015.2 mb 0.00 in0.0 mm 0.00 in0.0 mm 0.00 in0.0 mm
09:40 AM 92.8°F33.8°C 61.0°F16.1°C 35% 0.7 mph NNE1.1 kmh NNE 3.0 mph4.8 kmh 29.98 in1015.2 mb 0.00 in0.0 mm 0.00 in0.0 mm 0.00 in0.0 mm
09:50 AM 94.1°F34.5°C 62.0°F16.7°C 34% 0.5 mph SW0.8 kmh SW 4.0 mph6.4 kmh 29.98 in1015.2 mb 0.00 in0.0 mm 0.00 in0.0 mm 0.00 in0.0 mm
10:00 AM 94.0°F34.4°C 61.0°F16.1°C 33% 1.1 mph NE1.8 kmh NE 4.0 mph6.4 kmh 29.98 in1015.2 mb 0.00 in0.0 mm 0.00 in0.0 mm 0.00 in0.0 mm
10:10 AM 93.8°F34.3°C 61.0°F16.1°C 33% 1.4 mph SW2.3 kmh SW 6.0 mph9.7 kmh 29.98 in1015.2 mb 0.00 in0.0 mm 0.00 in0.0 mm 0.00 in0.0 mm
10:20 AM 93.5°F34.2°C 60.0°F15.6°C 33% 2.4 mph SW3.9 kmh SW 6.0 mph9.7 kmh 29.98 in1015.2 mb 0.00 in0.0 mm 0.00 in0.0 mm 0.00 in0.0 mm
10:30 AM 94.2°F34.6°C 61.0°F16.1°C 33% 1.0 mph SW1.6 kmh SW 3.0 mph4.8 kmh 29.97 in1014.9 mb 0.00 in0.0 mm 0.00 in0.0 mm 0.00 in0.0 mm
10:40 AM 94.5°F34.7°C 62.0°F16.7°C 34% 2.1 mph SW3.4 kmh SW 10.0 mph16.1 kmh 29.97 in1014.9 mb 0.00 in0.0 mm 0.00 in0.0 mm 0.00 in0.0 mm
10:50 AM 94.0°F34.4°C 62.0°F16.7°C 35% 3.0 mph SW4.8 kmh SW 8.0 mph12.9 kmh 29.97 in1014.9 mb 0.00 in0.0 mm 0.00 in0.0 mm 0.00 in0.0 mm
11:00 AM 94.1°F34.5°C 61.0°F16.1°C 33% 2.9 mph SW4.7 kmh SW 7.0 mph11.3 kmh 29.96 in1014.6 mb 0.00 in0.0 mm 0.00 in0.0 mm 0.00 in0.0 mm
11:10 AM 94.5°F34.7°C 61.0°F16.1°C 33% 1.1 mph NW1.8 kmh NW 4.0 mph6.4 kmh 29.96 in1014.6 mb 0.00 in0.0 mm 0.00 in0.0 mm 0.00 in0.0 mm
11:20 AM 94.0°F34.4°C 62.0°F16.7°C 34% 2.8 mph SW4.5 kmh SW 10.0 mph16.1 kmh 29.96 in1014.6 mb 0.00 in0.0 mm 0.00 in0.0 mm 0.00 in0.0 mm
11:30 AM 94.3°F34.6°C 62.0°F16.7°C 34% 2.7 mph S4.3 kmh S 8.0 mph12.9 kmh 29.95 in1014.2 mb 0.00 in0.0 mm 0.00 in0.0 mm 0.00 in0.0 mm
11:40 AM 94.5°F34.7°C 61.0°F16.1°C 33% 2.0 mph WNW3.2 kmh WNW 5.0 mph8.0 kmh 29.95 in1014.2 mb 0.00 in0.0 mm 0.00 in0.0 mm 0.00 in0.0 mm
11:50 AM 95.1°F35.1°C 62.0°F16.7°C 33% 1.7 mph SSW2.7 kmh SSW 9.0 mph14.5 kmh 29.95 in1014.2 mb 0.00 in0.0 mm 0.00 in0.0 mm 0.00 in0.0 mm
12:00 PM 95.3°F35.2°C 62.0°F16.7°C 33% 1.2 mph SW1.9 kmh SW 5.0 mph8.0 kmh 29.94 in1013.9 mb 0.00 in0.0 mm 0.00 in0.0 mm 0.00 in0.0 mm
12:10 PM 95.7°F35.4°C 61.0°F16.1°C 32% 2.3 mph S3.7 kmh S 7.0 mph11.3 kmh 29.94 in1013.9 mb 0.00 in0.0 mm 0.00 in0.0 mm 0.00 in0.0 mm
12:20 PM 96.1°F35.6°C 62.0°F16.7°C 32% 2.1 mph S3.4 kmh S 9.0 mph14.5 kmh 29.94 in1013.9 mb 0.00 in0.0 mm 0.00 in0.0 mm 0.00 in0.0 mm
12:30 PM 96.6°F35.9°C 62.0°F16.7°C 32% 1.5 mph SSW2.4 kmh SSW 6.0 mph9.7 kmh 29.93 in1013.5 mb 0.00 in0.0 mm 0.00 in0.0 mm 0.00 in0.0 mm
12:40 PM 96.4°F35.8°C 62.0°F16.7°C 32% 3.9 mph SW6.3 kmh SW 9.0 mph14.5 kmh 29.93 in1013.5 mb 0.00 in0.0 mm 0.00 in0.0 mm 0.00 in0.0 mm
12:50 PM 97.5°F36.4°C 62.0°F16.7°C 31% 3.0 mph SE4.8 kmh SE 9.0 mph14.5 kmh 29.92 in1013.2 mb 0.00 in0.0 mm 0.00 in0.0 mm 0.00 in0.0 mm
01:00 PM 98.0°F36.7°C 62.0°F16.7°C 30% 1.8 mph SSW2.9 kmh SSW 6.0 mph9.7 kmh 29.92 in1013.2 mb 0.00 in0.0 mm 0.00 in0.0 mm 0.00 in0.0 mm
01:10 PM 97.8°F36.6°C 62.0°F16.7°C 30% 2.3 mph S3.7 kmh S 6.0 mph9.7 kmh 29.91 in1012.9 mb 0.00 in0.0 mm 0.00 in0.0 mm 0.00 in0.0 mm
01:20 PM 97.9°F36.6°C 61.0°F16.1°C 29% 3.1 mph S5.0 kmh S 8.0 mph12.9 kmh 29.91 in1012.9 mb 0.00 in0.0 mm 0.00 in0.0 mm 0.00 in0.0 mm
01:30 PM 97.9°F36.6°C 62.0°F16.7°C 30% 2.6 mph SW4.2 kmh SW 8.0 mph12.9 kmh 29.91 in1012.9 mb 0.00 in0.0 mm 0.00 in0.0 mm 0.00 in0.0 mm
01:40 PM 98.5°F36.9°C 62.0°F16.7°C 30% 2.0 mph NW3.2 kmh NW 6.0 mph9.7 kmh 29.90 in1012.5 mb 0.00 in0.0 mm 0.00 in0.0 mm 0.00 in0.0 mm
01:50 PM 98.7°F37.1°C 61.0°F16.1°C 29% 3.5 mph SW5.6 kmh SW 9.0 mph14.5 kmh 29.89 in1012.2 mb 0.00 in0.0 mm 0.00 in0.0 mm 0.00 in0.0 mm
02:00 PM 98.9°F37.2°C 62.0°F16.7°C 29% 3.5 mph W5.6 kmh W 10.0 mph16.1 kmh 29.88 in1011.9 mb 0.00 in0.0 mm 0.00 in0.0 mm 0.00 in0.0 mm
02:10 PM 98.6°F37.0°C 61.0°F16.1°C 29% 3.3 mph SW5.3 kmh SW 9.0 mph14.5 kmh 29.88 in1011.9 mb 0.00 in0.0 mm 0.00 in0.0 mm 0.00 in0.0 mm
02:20 PM 99.4°F37.4°C 62.0°F16.7°C 29% 2.3 mph SSE3.7 kmh SSE 11.0 mph17.7 kmh 29.87 in1011.5 mb 0.00 in0.0 mm 0.00 in0.0 mm 0.00 in0.0 mm
02:30 PM 99.5°F37.5°C 62.0°F16.7°C 29% 2.6 mph S4.2 kmh S 6.0 mph9.7 kmh 29.87 in1011.5 mb 0.00 in0.0 mm 0.00 in0.0 mm 0.00 in0.0 mm
02:40 PM 99.5°F37.5°C 62.0°F16.7°C 29% 3.3 mph SW5.3 kmh SW 10.0 mph16.1 kmh 29.86 in1011.2 mb 0.00 in0.0 mm 0.00 in0.0 mm 0.00 in0.0 mm
02:50 PM 99.4°F37.4°C 62.0°F16.7°C 29% 4.0 mph S6.4 kmh S 11.0 mph17.7 kmh 29.86 in1011.2 mb 0.00 in0.0 mm 0.00 in0.0 mm 0.00 in0.0 mm
03:00 PM 99.5°F37.5°C 62.0°F16.7°C 29% 3.4 mph S5.5 kmh S 11.0 mph17.7 kmh 29.86 in1011.2 mb 0.00 in0.0 mm 0.00 in0.0 mm 0.00 in0.0 mm
03:10 PM 100.2°F37.9°C 62.0°F16.7°C 28% 3.4 mph S5.5 kmh S 12.0 mph19.3 kmh 29.85 in1010.8 mb 0.00 in0.0 mm 0.00 in0.0 mm 0.00 in0.0 mm
03:20 PM 100.4°F38.0°C 62.0°F16.7°C 28% 3.7 mph NNW6.0 kmh NNW 10.0 mph16.1 kmh 29.85 in1010.8 mb 0.00 in0.0 mm 0.00 in0.0 mm 0.00 in0.0 mm
03:30 PM 100.7°F38.2°C 62.0°F16.7°C 28% 3.3 mph SW5.3 kmh SW 9.0 mph14.5 kmh 29.85 in1010.8 mb 0.00 in0.0 mm 0.00 in0.0 mm 0.00 in0.0 mm
03:40 PM 100.7°F38.2°C 62.0°F16.7°C 28% 3.9 mph SE6.3 kmh SE 11.0 mph17.7 kmh 29.84 in1010.5 mb 0.00 in0.0 mm 0.00 in0.0 mm 0.00 in0.0 mm
03:50 PM 100.5°F38.1°C 63.0°F17.2°C 29% 3.0 mph WNW4.8 kmh WNW 8.0 mph12.9 kmh 29.84 in1010.5 mb 0.00 in0.0 mm 0.00 in0.0 mm 0.00 in0.0 mm
04:00 PM 100.9°F38.3°C 62.0°F16.7°C 28% 2.5 mph SW4.0 kmh SW 9.0 mph14.5 kmh 29.83 in1010.2 mb 0.00 in0.0 mm 0.00 in0.0 mm 0.00 in0.0 mm
04:10 PM 100.6°F38.1°C 62.0°F16.7°C 28% 3.7 mph SE6.0 kmh SE 9.0 mph14.5 kmh 29.83 in1010.2 mb 0.00 in0.0 mm 0.00 in0.0 mm 0.00 in0.0 mm
04:20 PM 100.9°F38.3°C 61.0°F16.1°C 27% 3.9 mph SSW6.3 kmh SSW 11.0 mph17.7 kmh 29.82 in1009.8 mb 0.00 in0.0 mm 0.00 in0.0 mm 0.00 in0.0 mm
04:30 PM 100.2°F37.9°C 62.0°F16.7°C 28% 4.6 mph SW7.4 kmh SW 10.0 mph16.1 kmh 29.82 in1009.8 mb 0.00 in0.0 mm 0.00 in0.0 mm 0.00 in0.0 mm
04:40 PM 100.5°F38.1°C 62.0°F16.7°C 28% 3.8 mph SW6.1 kmh SW 10.0 mph16.1 kmh 29.82 in1009.8 mb 0.00 in0.0 mm 0.00 in0.0 mm 0.00 in0.0 mm
04:50 PM 100.4°F38.0°C 62.0°F16.7°C 28% 4.0 mph SW6.4 kmh SW 9.0 mph14.5 kmh 29.82 in1009.8 mb 0.00 in0.0 mm 0.00 in0.0 mm 0.00 in0.0 mm
05:00 PM 100.7°F38.2°C 61.0°F16.1°C 27% 4.2 mph SW6.8 kmh SW 9.0 mph14.5 kmh 29.82 in1009.8 mb 0.00 in0.0 mm 0.00 in0.0 mm 0.00 in0.0 mm
05:10 PM 100.5°F38.1°C 62.0°F16.7°C 28% 4.9 mph SE7.9 kmh SE 13.0 mph20.9 kmh 29.82 in1009.8 mb 0.00 in0.0 mm 0.00 in0.0 mm 0.00 in0.0 mm
05:20 PM 100.4°F38.0°C 62.0°F16.7°C 28% 4.3 mph WSW6.9 kmh WSW 9.0 mph14.5 kmh 29.81 in1009.5 mb 0.00 in0.0 mm 0.00 in0.0 mm 0.00 in0.0 mm
05:30 PM 100.1°F37.8°C 62.0°F16.7°C 28% 4.5 mph SW7.2 kmh SW 12.0 mph19.3 kmh 29.81 in1009.5 mb 0.00 in0.0 mm 0.00 in0.0 mm 0.00 in0.0 mm
05:40 PM 100.3°F37.9°C 62.0°F16.7°C 28% 3.9 mph SW6.3 kmh SW 10.0 mph16.1 kmh 29.81 in1009.5 mb 0.00 in0.0 mm 0.00 in0.0 mm 0.00 in0.0 mm
05:50 PM 100.3°F37.9°C 62.0°F16.7°C 28% 3.3 mph SSW5.3 kmh SSW 7.0 mph11.3 kmh 29.82 in1009.8 mb 0.00 in0.0 mm 0.00 in0.0 mm 0.00 in0.0 mm
06:00 PM 100.1°F37.8°C 62.0°F16.7°C 28% 3.6 mph WSW5.8 kmh WSW 8.0 mph12.9 kmh 29.82 in1009.8 mb 0.00 in0.0 mm 0.00 in0.0 mm 0.00 in0.0 mm
06:10 PM 100.2°F37.9°C 62.0°F16.7°C 28% 1.2 mph SW1.9 kmh SW 4.0 mph6.4 kmh 29.83 in1010.2 mb 0.00 in0.0 mm 0.00 in0.0 mm 0.00 in0.0 mm
06:20 PM 99.8°F37.7°C 57.0°F13.9°C 24% 2.1 mph N3.4 kmh N 7.0 mph11.3 kmh 29.83 in1010.2 mb 0.00 in0.0 mm 0.00 in0.0 mm 0.00 in0.0 mm
06:30 PM 98.4°F36.9°C 59.0°F15.0°C 27% 2.6 mph E4.2 kmh E 6.0 mph9.7 kmh 29.83 in1010.2 mb 0.00 in0.0 mm 0.00 in0.0 mm 0.00 in0.0 mm
06:40 PM 97.7°F36.5°C 59.0°F15.0°C 28% 3.2 mph ENE5.1 kmh ENE 8.0 mph12.9 kmh 29.85 in1010.8 mb 0.00 in0.0 mm 0.00 in0.0 mm 0.00 in0.0 mm
06:50 PM 97.5°F36.4°C 59.0°F15.0°C 28% 1.7 mph N2.7 kmh N 6.0 mph9.7 kmh 29.85 in1010.8 mb 0.00 in0.0 mm 0.00 in0.0 mm 0.00 in0.0 mm
07:00 PM 97.0°F36.1°C 63.0°F17.2°C 32% 3.1 mph WNW5.0 kmh WNW 15.0 mph24.1 kmh 29.87 in1011.5 mb 0.00 in0.0 mm 0.00 in0.0 mm 0.00 in0.0 mm
07:10 PM 93.7°F34.3°C 61.0°F16.1°C 34% 6.5 mph N10.5 kmh N 14.0 mph22.5 kmh 29.86 in1011.2 mb 0.00 in0.0 mm 0.00 in0.0 mm 0.00 in0.0 mm
07:20 PM 89.2°F31.8°C 67.0°F19.4°C 48% 7.4 mph NE11.9 kmh NE 15.0 mph24.1 kmh 29.86 in1011.2 mb 0.00 in0.0 mm 0.00 in0.0 mm 0.00 in0.0 mm
07:30 PM 87.4°F30.8°C 68.0°F20.0°C 53% 2.8 mph N4.5 kmh N 8.0 mph12.9 kmh 29.85 in1010.8 mb 0.00 in0.0 mm 0.00 in0.0 mm 0.00 in0.0 mm
07:40 PM 87.7°F30.9°C 67.0°F19.4°C 51% 2.9 mph NNE4.7 kmh NNE 10.0 mph16.1 kmh 29.85 in1010.8 mb 0.00 in0.0 mm 0.00 in0.0 mm 0.00 in0.0 mm
07:50 PM 87.3°F30.7°C 66.0°F18.9°C 49% 3.0 mph N4.8 kmh N 6.0 mph9.7 kmh 29.84 in1010.5 mb 0.00 in0.0 mm 0.00 in0.0 mm 0.00 in0.0 mm
08:00 PM 86.9°F30.5°C 67.0°F19.4°C 52% 3.5 mph NNE5.6 kmh NNE 6.0 mph9.7 kmh 29.84 in1010.5 mb 0.00 in0.0 mm 0.00 in0.0 mm 0.00 in0.0 mm
08:10 PM 87.1°F30.6°C 67.0°F19.4°C 52% 3.0 mph NE4.8 kmh NE 6.0 mph9.7 kmh 29.84 in1010.5 mb 0.00 in0.0 mm 0.00 in0.0 mm 0.00 in0.0 mm
08:20 PM 87.1°F30.6°C 66.0°F18.9°C 49% 3.5 mph N5.6 kmh N 7.0 mph11.3 kmh 29.85 in1010.8 mb 0.00 in0.0 mm 0.00 in0.0 mm 0.00 in0.0 mm
08:30 PM 85.6°F29.8°C 65.0°F18.3°C 51% 5.8 mph N9.3 kmh N 10.0 mph16.1 kmh 29.86 in1011.2 mb 0.00 in0.0 mm 0.00 in0.0 mm 0.00 in0.0 mm
08:40 PM 85.8°F29.9°C 64.0°F17.8°C 48% 4.3 mph N6.9 kmh N 9.0 mph14.5 kmh 29.86 in1011.2 mb 0.00 in0.0 mm 0.00 in0.0 mm 0.00 in0.0 mm
08:50 PM 85.3°F29.6°C 66.0°F18.9°C 52% 4.5 mph NNW7.2 kmh NNW 8.0 mph12.9 kmh 29.86 in1011.2 mb 0.00 in0.0 mm 0.00 in0.0 mm 0.00 in0.0 mm
09:00 PM 85.7°F29.8°C 65.0°F18.3°C 50% 4.9 mph NNW7.9 kmh NNW 8.0 mph12.9 kmh 29.87 in1011.5 mb 0.00 in0.0 mm 0.00 in0.0 mm 0.00 in0.0 mm
09:10 PM 86.0°F30.0°C 65.0°F18.3°C 49% 4.3 mph N6.9 kmh N 7.0 mph11.3 kmh 29.87 in1011.5 mb 0.00 in0.0 mm 0.00 in0.0 mm 0.00 in0.0 mm
09:40 PM 85.9°F29.9°C 64.0°F17.8°C 48% 4.1 mph N6.6 kmh N 7.0 mph11.3 kmh 29.86 in1011.2 mb 0.00 in0.0 mm 0.00 in0.0 mm 0.00 in0.0 mm
09:50 PM 85.1°F29.5°C 65.0°F18.3°C 51% 5.1 mph NNE8.2 kmh NNE 8.0 mph12.9 kmh 29.86 in1011.2 mb 0.00 in0.0 mm 0.00 in0.0 mm 0.00 in0.0 mm
10:00 PM 84.6°F29.2°C 65.0°F18.3°C 52% 5.9 mph NNE9.5 kmh NNE 10.0 mph16.1 kmh 29.87 in1011.5 mb 0.00 in0.0 mm 0.00 in0.0 mm 0.00 in0.0 mm
10:10 PM 85.0°F29.4°C 65.0°F18.3°C 51% 5.5 mph NNE8.9 kmh NNE 9.0 mph14.5 kmh 29.87 in1011.5 mb 0.00 in0.0 mm 0.00 in0.0 mm 0.00 in0.0 mm
10:20 PM 85.8°F29.9°C 64.0°F17.8°C 49% 3.6 mph N5.8 kmh N 8.0 mph12.9 kmh 29.87 in1011.5 mb 0.00 in0.0 mm 0.00 in0.0 mm 0.00 in0.0 mm
10:30 PM 86.1°F30.1°C 64.0°F17.8°C 48% 4.4 mph NE7.1 kmh NE 9.0 mph14.5 kmh 29.88 in1011.9 mb 0.00 in0.0 mm 0.00 in0.0 mm 0.00 in0.0 mm
10:40 PM 85.6°F29.8°C 64.0°F17.8°C 49% 4.6 mph NNE7.4 kmh NNE 8.0 mph12.9 kmh 29.87 in1011.5 mb 0.00 in0.0 mm 0.00 in0.0 mm 0.00 in0.0 mm
10:50 PM 85.3°F29.6°C 64.0°F17.8°C 49% 5.9 mph NNE9.5 kmh NNE 10.0 mph16.1 kmh 29.87 in1011.5 mb 0.00 in0.0 mm 0.00 in0.0 mm 0.00 in0.0 mm
11:00 PM 85.4°F29.7°C 64.0°F17.8°C 49% 5.5 mph NNW8.9 kmh NNW 9.0 mph14.5 kmh 29.87 in1011.5 mb 0.00 in0.0 mm 0.00 in0.0 mm 0.00 in0.0 mm
11:10 PM 85.8°F29.9°C 64.0°F17.8°C 48% 5.6 mph NNE9.0 kmh NNE 9.0 mph14.5 kmh 29.86 in1011.2 mb 0.00 in0.0 mm 0.00 in0.0 mm 0.00 in0.0 mm
11:20 PM 86.2°F30.1°C 64.0°F17.8°C 47% 5.6 mph N9.0 kmh N 11.0 mph17.7 kmh 29.86 in1011.2 mb 0.00 in0.0 mm 0.00 in0.0 mm 0.00 in0.0 mm
11:30 PM 86.3°F30.2°C 64.0°F17.8°C 47% 4.5 mph NNE7.2 kmh NNE 10.0 mph16.1 kmh 29.87 in1011.5 mb 0.00 in0.0 mm 0.00 in0.0 mm 0.00 in0.0 mm
11:40 PM 86.0°F30.0°C 63.0°F17.2°C 47% 4.4 mph NNE7.1 kmh NNE 7.0 mph11.3 kmh 29.87 in1011.5 mb 0.00 in0.0 mm 0.00 in0.0 mm 0.00 in0.0 mm
11:50 PM 86.4°F30.2°C 63.0°F17.2°C 46% 4.4 mph N7.1 kmh N 9.0 mph14.5 kmh 29.87 in1011.5 mb 0.00 in0.0 mm 0.00 in0.0 mm 0.00 in0.0 mm